sensor_id;sensor_type;location;lat;lon;timestamp;pressure;altitude;pressure_sealevel;temperature;humidity
77702;BME280;66868;42.708;23.404;2023-09-30T00:00:15;95626.16;;;15.63;62.52
77702;BME280;66868;42.708;23.404;2023-09-30T00:02:41;95621.78;;;15.65;62.75
77702;BME280;66868;42.708;23.404;2023-09-30T00:05:06;95625.66;;;15.71;62.52
77702;BME280;66868;42.708;23.404;2023-09-30T00:07:33;95606.31;;;15.56;62.63
77702;BME280;66868;42.708;23.404;2023-09-30T00:09:59;95630.53;;;15.74;62.71
77702;BME280;66868;42.708;23.404;2023-09-30T00:12:24;95623.28;;;15.68;62.95
77702;BME280;66868;42.708;23.404;2023-09-30T00:14:50;95623.38;;;15.79;62.49
77702;BME280;66868;42.708;23.404;2023-09-30T00:17:15;95623.97;;;15.82;62.30
77702;BME280;66868;42.708;23.404;2023-09-30T00:19:41;95606.06;;;15.71;61.79
77702;BME280;66868;42.708;23.404;2023-09-30T00:22:06;95626.19;;;15.87;61.95
77702;BME280;66868;42.708;23.404;2023-09-30T00:24:32;95617.59;;;15.88;62.11
77702;BME280;66868;42.708;23.404;2023-09-30T00:26:59;95614.94;;;15.89;61.79
77702;BME280;66868;42.708;23.404;2023-09-30T00:29:25;95620.22;;;15.99;61.41
77702;BME280;66868;42.708;23.404;2023-09-30T00:31:51;95618.16;;;16.04;61.26
77702;BME280;66868;42.708;23.404;2023-09-30T00:34:17;95624.66;;;16.08;60.84
77702;BME280;66868;42.708;23.404;2023-09-30T00:36:42;95553.94;;;15.74;61.06
77702;BME280;66868;42.708;23.404;2023-09-30T00:39:08;95604.47;;;16.16;60.77
77702;BME280;66868;42.708;23.404;2023-09-30T00:41:35;95624.31;;;16.37;61.29
77702;BME280;66868;42.708;23.404;2023-09-30T00:44:00;95620.34;;;16.44;60.65
77702;BME280;66868;42.708;23.404;2023-09-30T00:46:31;95612.22;;;16.39;61.09
77702;BME280;66868;42.708;23.404;2023-09-30T00:48:57;95620.72;;;16.50;60.75
77702;BME280;66868;42.708;23.404;2023-09-30T00:51:23;95611.28;;;16.40;60.96
77702;BME280;66868;42.708;23.404;2023-09-30T00:53:51;95608.41;;;16.44;60.83
77702;BME280;66868;42.708;23.404;2023-09-30T00:56:18;95597.22;;;16.34;60.74
77702;BME280;66868;42.708;23.404;2023-09-30T00:58:45;95606.28;;;16.38;60.67
77702;BME280;66868;42.708;23.404;2023-09-30T01:01:12;95609.53;;;16.40;61.09
77702;BME280;66868;42.708;23.404;2023-09-30T01:03:38;95615.72;;;16.49;61.38
77702;BME280;66868;42.708;23.404;2023-09-30T01:06:04;95564.34;;;16.29;61.47
77702;BME280;66868;42.708;23.404;2023-09-30T01:08:31;95603.31;;;16.55;60.47
77702;BME280;66868;42.708;23.404;2023-09-30T01:10:57;95606.13;;;16.63;60.46
77702;BME280;66868;42.708;23.404;2023-09-30T01:13:23;95585.53;;;16.54;60.28
77702;BME280;66868;42.708;23.404;2023-09-30T01:15:56;95614.03;;;16.71;60.83
77702;BME280;66868;42.708;23.404;2023-09-30T01:18:21;95614.41;;;16.78;60.75
77702;BME280;66868;42.708;23.404;2023-09-30T01:20:47;95616.84;;;16.79;60.97
77702;BME280;66868;42.708;23.404;2023-09-30T01:23:13;95614.88;;;16.83;60.50
77702;BME280;66868;42.708;23.404;2023-09-30T01:25:38;95612.09;;;16.86;60.23
77702;BME280;66868;42.708;23.404;2023-09-30T01:28:07;95610.47;;;16.85;60.09
77702;BME280;66868;42.708;23.404;2023-09-30T01:30:34;95607.53;;;16.90;60.33
77702;BME280;66868;42.708;23.404;2023-09-30T01:32:59;95609.75;;;16.94;60.23
77702;BME280;66868;42.708;23.404;2023-09-30T01:35:25;95610.91;;;16.90;60.53
77702;BME280;66868;42.708;23.404;2023-09-30T01:37:50;95609.75;;;16.94;60.15
77702;BME280;66868;42.708;23.404;2023-09-30T01:40:16;95610.47;;;16.96;60.59
77702;BME280;66868;42.708;23.404;2023-09-30T01:42:43;95606.03;;;16.98;60.23
77702;BME280;66868;42.708;23.404;2023-09-30T01:45:09;95609.31;;;17.00;60.26
77702;BME280;66868;42.708;23.404;2023-09-30T01:47:35;95604.41;;;16.97;60.56
77702;BME280;66868;42.708;23.404;2023-09-30T01:50:01;95605.81;;;17.01;60.64
77702;BME280;66868;42.708;23.404;2023-09-30T01:52:26;95611.16;;;16.98;60.69
77702;BME280;66868;42.708;23.404;2023-09-30T01:54:52;95604.19;;;17.00;61.50
77702;BME280;66868;42.708;23.404;2023-09-30T01:57:19;95592.19;;;16.90;61.36
77702;BME280;66868;42.708;23.404;2023-09-30T01:59:44;95526.50;;;16.57;61.24
77702;BME280;66868;42.708;23.404;2023-09-30T02:02:10;95590.00;;;16.85;61.63
77702;BME280;66868;42.708;23.404;2023-09-30T02:04:35;95599.97;;;16.88;62.11
77702;BME280;66868;42.708;23.404;2023-09-30T02:07:01;95600.94;;;16.87;61.92
77702;BME280;66868;42.708;23.404;2023-09-30T02:09:26;95584.19;;;16.72;61.98
77702;BME280;66868;42.708;23.404;2023-09-30T02:11:51;95594.88;;;16.77;62.74
77702;BME280;66868;42.708;23.404;2023-09-30T02:14:17;95601.16;;;16.73;62.81
77702;BME280;66868;42.708;23.404;2023-09-30T02:16:42;95572.28;;;16.49;62.50
77702;BME280;66868;42.708;23.404;2023-09-30T02:19:08;95601.22;;;16.60;63.29
77702;BME280;66868;42.708;23.404;2023-09-30T02:21:36;95606.91;;;16.53;63.21
77702;BME280;66868;42.708;23.404;2023-09-30T02:24:01;95601.66;;;16.43;63.57
77702;BME280;66868;42.708;23.404;2023-09-30T02:26:27;95605.69;;;16.34;64.22
77702;BME280;66868;42.708;23.404;2023-09-30T02:28:54;95603.59;;;16.28;64.58
77702;BME280;66868;42.708;23.404;2023-09-30T02:31:19;95603.00;;;16.25;65.25
77702;BME280;66868;42.708;23.404;2023-09-30T02:33:45;95581.69;;;16.02;64.84
77702;BME280;66868;42.708;23.404;2023-09-30T02:36:11;95575.50;;;15.94;64.95
77702;BME280;66868;42.708;23.404;2023-09-30T02:38:38;95597.44;;;15.96;65.49
77702;BME280;66868;42.708;23.404;2023-09-30T02:41:03;95596.50;;;15.86;65.59
77702;BME280;66868;42.708;23.404;2023-09-30T02:43:29;95588.19;;;15.71;65.83
77702;BME280;66868;42.708;23.404;2023-09-30T02:45:54;95582.41;;;15.57;65.79
77702;BME280;66868;42.708;23.404;2023-09-30T02:48:20;95596.81;;;15.58;65.92
77702;BME280;66868;42.708;23.404;2023-09-30T02:50:46;95601.59;;;15.49;65.55
77702;BME280;66868;42.708;23.404;2023-09-30T02:53:12;95587.16;;;15.37;65.45
77702;BME280;66868;42.708;23.404;2023-09-30T02:55:43;95596.44;;;15.38;65.55
77702;BME280;66868;42.708;23.404;2023-09-30T02:58:08;95597.66;;;15.33;65.92
77702;BME280;66868;42.708;23.404;2023-09-30T03:00:37;95591.25;;;15.27;65.65
77702;BME280;66868;42.708;23.404;2023-09-30T03:03:04;95600.03;;;15.23;65.42
77702;BME280;66868;42.708;23.404;2023-09-30T03:05:30;95602.09;;;15.18;65.68
77702;BME280;66868;42.708;23.404;2023-09-30T03:07:59;95589.47;;;15.04;65.33
77702;BME280;66868;42.708;23.404;2023-09-30T03:10:25;95607.22;;;15.06;66.17
77702;BME280;66868;42.708;23.404;2023-09-30T03:12:58;95594.38;;;14.94;66.38
77702;BME280;66868;42.708;23.404;2023-09-30T03:15:29;95603.75;;;15.07;67.49
77702;BME280;66868;42.708;23.404;2023-09-30T03:17:58;95606.19;;;15.08;67.47
77702;BME280;66868;42.708;23.404;2023-09-30T03:20:25;95609.47;;;15.10;67.76
77702;BME280;66868;42.708;23.404;2023-09-30T03:22:51;95603.13;;;15.03;67.83
77702;BME280;66868;42.708;23.404;2023-09-30T03:25:18;95607.13;;;15.07;68.05
77702;BME280;66868;42.708;23.404;2023-09-30T03:27:46;95602.84;;;14.95;67.79
77702;BME280;66868;42.708;23.404;2023-09-30T03:30:13;95590.94;;;14.83;68.30
77702;BME280;66868;42.708;23.404;2023-09-30T03:32:40;95597.47;;;14.87;68.26
77702;BME280;66868;42.708;23.404;2023-09-30T03:35:08;95596.72;;;14.85;67.77
77702;BME280;66868;42.708;23.404;2023-09-30T03:37:39;95599.91;;;14.88;68.05
77702;BME280;66868;42.708;23.404;2023-09-30T03:40:05;95581.53;;;14.71;67.97
77702;BME280;66868;42.708;23.404;2023-09-30T03:42:39;95599.50;;;14.82;67.83
77702;BME280;66868;42.708;23.404;2023-09-30T03:45:06;95608.66;;;14.84;67.33
77702;BME280;66868;42.708;23.404;2023-09-30T03:47:37;95600.91;;;14.86;68.23
77702;BME280;66868;42.708;23.404;2023-09-30T03:50:04;95605.31;;;14.84;68.52
77702;BME280;66868;42.708;23.404;2023-09-30T03:52:33;95588.78;;;14.77;69.02
77702;BME280;66868;42.708;23.404;2023-09-30T03:55:00;95597.69;;;14.84;69.12
77702;BME280;66868;42.708;23.404;2023-09-30T03:57:26;95601.81;;;14.85;69.16
77702;BME280;66868;42.708;23.404;2023-09-30T03:59:53;95599.72;;;14.79;69.41
77702;BME280;66868;42.708;23.404;2023-09-30T04:02:18;95585.13;;;14.68;68.64
77702;BME280;66868;42.708;23.404;2023-09-30T04:04:44;95605.81;;;14.76;68.92
77702;BME280;66868;42.708;23.404;2023-09-30T04:07:11;95594.50;;;14.68;69.30
77702;BME280;66868;42.708;23.404;2023-09-30T04:09:36;95609.91;;;14.79;69.30
77702;BME280;66868;42.708;23.404;2023-09-30T04:12:02;95614.88;;;14.80;69.56
77702;BME280;66868;42.708;23.404;2023-09-30T04:14:28;95613.38;;;14.78;69.61
77702;BME280;66868;42.708;23.404;2023-09-30T04:16:53;95586.78;;;14.56;69.50
77702;BME280;66868;42.708;23.404;2023-09-30T04:19:19;95607.97;;;14.70;69.87
77702;BME280;66868;42.708;23.404;2023-09-30T04:21:45;95609.72;;;14.69;69.79
77702;BME280;66868;42.708;23.404;2023-09-30T04:24:10;95600.22;;;14.58;70.10
77702;BME280;66868;42.708;23.404;2023-09-30T04:26:36;95588.19;;;14.48;70.28
77702;BME280;66868;42.708;23.404;2023-09-30T04:29:02;95620.81;;;14.55;70.21
77702;BME280;66868;42.708;23.404;2023-09-30T04:31:36;95608.88;;;14.43;70.58
77702;BME280;66868;42.708;23.404;2023-09-30T04:34:01;95613.78;;;14.46;70.85
77702;BME280;66868;42.708;23.404;2023-09-30T04:36:27;95614.47;;;14.48;71.09
77702;BME280;66868;42.708;23.404;2023-09-30T04:38:52;95614.38;;;14.37;71.22
77702;BME280;66868;42.708;23.404;2023-09-30T04:41:18;95627.81;;;14.39;71.57
77702;BME280;66868;42.708;23.404;2023-09-30T04:43:44;95615.19;;;14.38;71.50
77702;BME280;66868;42.708;23.404;2023-09-30T04:46:09;95624.56;;;14.37;71.97
77702;BME280;66868;42.708;23.404;2023-09-30T04:48:37;95619.84;;;14.31;71.49
77702;BME280;66868;42.708;23.404;2023-09-30T04:51:06;95631.66;;;14.32;71.67
77702;BME280;66868;42.708;23.404;2023-09-30T04:53:32;95631.44;;;14.35;71.98
77702;BME280;66868;42.708;23.404;2023-09-30T04:55:59;95621.25;;;14.35;72.06
77702;BME280;66868;42.708;23.404;2023-09-30T04:58:24;95632.22;;;14.37;71.90
77702;BME280;66868;42.708;23.404;2023-09-30T05:00:50;95635.66;;;14.36;71.83
77702;BME280;66868;42.708;23.404;2023-09-30T05:03:16;95624.56;;;14.37;71.98
77702;BME280;66868;42.708;23.404;2023-09-30T05:05:41;95638.00;;;14.39;72.00
77702;BME280;66868;42.708;23.404;2023-09-30T05:08:07;95608.75;;;14.32;72.38
77702;BME280;66868;42.708;23.404;2023-09-30T05:10:33;95635.59;;;14.50;72.64
77702;BME280;66868;42.708;23.404;2023-09-30T05:12:59;95613.56;;;14.37;72.86
77702;BME280;66868;42.708;23.404;2023-09-30T05:15:24;95647.19;;;14.54;72.29
77702;BME280;66868;42.708;23.404;2023-09-30T05:17:50;95646.81;;;14.61;72.60
77702;BME280;66868;42.708;23.404;2023-09-30T05:20:16;95607.03;;;14.45;71.61
77702;BME280;66868;42.708;23.404;2023-09-30T05:22:45;95640.28;;;14.69;71.00
77702;BME280;66868;42.708;23.404;2023-09-30T05:25:14;95644.56;;;14.69;70.96
77702;BME280;66868;42.708;23.404;2023-09-30T05:27:44;95645.25;;;14.71;70.92
77702;BME280;66868;42.708;23.404;2023-09-30T05:30:09;95646.00;;;14.73;70.86
77702;BME280;66868;42.708;23.404;2023-09-30T05:32:37;95643.44;;;14.73;70.52
77702;BME280;66868;42.708;23.404;2023-09-30T05:35:05;95652.00;;;14.72;70.68
77702;BME280;66868;42.708;23.404;2023-09-30T05:37:31;95649.44;;;14.72;70.66
77702;BME280;66868;42.708;23.404;2023-09-30T05:39:56;95657.91;;;14.72;70.96
77702;BME280;66868;42.708;23.404;2023-09-30T05:42:22;95660.38;;;14.74;71.06
77702;BME280;66868;42.708;23.404;2023-09-30T05:44:47;95660.16;;;14.77;71.18
77702;BME280;66868;42.708;23.404;2023-09-30T05:47:13;95651.59;;;14.78;70.89
77702;BME280;66868;42.708;23.404;2023-09-30T05:49:40;95647.19;;;14.80;72.37
77702;BME280;66868;42.708;23.404;2023-09-30T05:52:06;95661.19;;;14.87;71.76
77702;BME280;66868;42.708;23.404;2023-09-30T05:54:32;95655.19;;;14.88;72.04
77702;BME280;66868;42.708;23.404;2023-09-30T05:56:57;95661.69;;;14.92;71.90
77702;BME280;66868;42.708;23.404;2023-09-30T05:59:23;95658.25;;;14.93;71.92
77702;BME280;66868;42.708;23.404;2023-09-30T06:01:50;95664.31;;;15.03;71.96
77702;BME280;66868;42.708;23.404;2023-09-30T06:04:16;95664.16;;;15.06;72.05
77702;BME280;66868;42.708;23.404;2023-09-30T06:06:41;95668.34;;;15.07;71.24
77702;BME280;66868;42.708;23.404;2023-09-30T06:09:09;95665.34;;;15.13;70.88
77702;BME280;66868;42.708;23.404;2023-09-30T06:11:34;95664.16;;;15.06;70.69
77702;BME280;66868;42.708;23.404;2023-09-30T06:14:01;95667.38;;;15.08;70.43
77702;BME280;66868;42.708;23.404;2023-09-30T06:16:27;95674.53;;;15.03;70.50
77702;BME280;66868;42.708;23.404;2023-09-30T06:18:54;95673.94;;;14.99;70.50
77702;BME280;66868;42.708;23.404;2023-09-30T06:21:24;95678.31;;;15.10;70.67
77702;BME280;66868;42.708;23.404;2023-09-30T06:23:50;95684.31;;;15.09;70.92
77702;BME280;66868;42.708;23.404;2023-09-30T06:26:17;95689.22;;;15.12;70.75
77702;BME280;66868;42.708;23.404;2023-09-30T06:28:43;95680.25;;;15.19;70.38
77702;BME280;66868;42.708;23.404;2023-09-30T06:31:10;95617.34;;;14.82;70.24
77702;BME280;66868;42.708;23.404;2023-09-30T06:33:38;95681.25;;;15.29;69.59
77702;BME280;66868;42.708;23.404;2023-09-30T06:36:12;95666.38;;;15.23;69.97
77702;BME280;66868;42.708;23.404;2023-09-30T06:38:41;95681.44;;;15.39;69.87
77702;BME280;66868;42.708;23.404;2023-09-30T06:41:07;95683.25;;;15.49;70.11
77702;BME280;66868;42.708;23.404;2023-09-30T06:43:33;95686.34;;;15.55;70.66
77702;BME280;66868;42.708;23.404;2023-09-30T06:46:06;95680.41;;;15.67;71.37
77702;BME280;66868;42.708;23.404;2023-09-30T06:48:34;95685.22;;;15.82;69.41
77702;BME280;66868;42.708;23.404;2023-09-30T06:51:00;95690.50;;;15.92;69.28
77702;BME280;66868;42.708;23.404;2023-09-30T06:53:26;95660.31;;;15.86;68.51
77702;BME280;66868;42.708;23.404;2023-09-30T06:55:51;95692.00;;;16.07;66.95
77702;BME280;66868;42.708;23.404;2023-09-30T06:58:17;95692.84;;;16.19;67.02
77702;BME280;66868;42.708;23.404;2023-09-30T07:00:47;95702.41;;;16.28;66.04
77702;BME280;66868;42.708;23.404;2023-09-30T07:03:12;95678.47;;;16.18;65.44
77702;BME280;66868;42.708;23.404;2023-09-30T07:05:40;95698.19;;;16.40;65.30
77702;BME280;66868;42.708;23.404;2023-09-30T07:08:06;95705.41;;;16.46;65.20
77702;BME280;66868;42.708;23.404;2023-09-30T07:10:31;95701.00;;;16.48;64.72
77702;BME280;66868;42.708;23.404;2023-09-30T07:12:57;95700.44;;;16.55;64.89
77702;BME280;66868;42.708;23.404;2023-09-30T07:15:22;95704.53;;;16.58;64.83
77702;BME280;66868;42.708;23.404;2023-09-30T07:17:48;95714.78;;;16.58;65.26
77702;BME280;66868;42.708;23.404;2023-09-30T07:20:14;95687.94;;;16.63;65.31
77702;BME280;66868;42.708;23.404;2023-09-30T07:22:40;95693.41;;;16.70;65.30
77702;BME280;66868;42.708;23.404;2023-09-30T07:25:06;95677.38;;;16.79;64.30
77702;BME280;66868;42.708;23.404;2023-09-30T07:27:32;95696.28;;;17.00;63.54
77702;BME280;66868;42.708;23.404;2023-09-30T07:29:57;95694.66;;;17.10;63.02
77702;BME280;66868;42.708;23.404;2023-09-30T07:32:22;95704.06;;;17.21;62.38
77702;BME280;66868;42.708;23.404;2023-09-30T07:34:49;95671.84;;;17.07;62.05
77702;BME280;66868;42.708;23.404;2023-09-30T07:37:14;95702.94;;;17.36;61.74
77702;BME280;66868;42.708;23.404;2023-09-30T07:39:40;95704.19;;;17.53;61.57
77702;BME280;66868;42.708;23.404;2023-09-30T07:42:09;95687.22;;;17.52;59.72
77702;BME280;66868;42.708;23.404;2023-09-30T07:44:34;95684.22;;;17.69;59.46
77702;BME280;66868;42.708;23.404;2023-09-30T07:47:03;95700.59;;;17.89;59.65
77702;BME280;66868;42.708;23.404;2023-09-30T07:49:29;95705.22;;;17.95;59.42
77702;BME280;66868;42.708;23.404;2023-09-30T07:51:55;95694.59;;;18.10;58.84
77702;BME280;66868;42.708;23.404;2023-09-30T07:54:20;95704.38;;;18.17;58.45
77702;BME280;66868;42.708;23.404;2023-09-30T07:56:46;95698.53;;;18.26;58.37
77702;BME280;66868;42.708;23.404;2023-09-30T07:59:11;95699.38;;;18.36;57.96
77702;BME280;66868;42.708;23.404;2023-09-30T08:01:36;95700.63;;;18.52;56.90
77702;BME280;66868;42.708;23.404;2023-09-30T08:04:03;95698.16;;;18.62;56.49
77702;BME280;66868;42.708;23.404;2023-09-30T08:06:28;95699.97;;;18.71;57.38
77702;BME280;66868;42.708;23.404;2023-09-30T08:08:54;95685.06;;;18.65;56.41
77702;BME280;66868;42.708;23.404;2023-09-30T08:11:20;95705.47;;;18.87;55.77
77702;BME280;66868;42.708;23.404;2023-09-30T08:13:46;95692.19;;;19.03;55.76
77702;BME280;66868;42.708;23.404;2023-09-30T08:16:12;95700.78;;;19.13;55.96
77702;BME280;66868;42.708;23.404;2023-09-30T08:18:38;95696.78;;;19.30;54.01
77702;BME280;66868;42.708;23.404;2023-09-30T08:21:03;95704.28;;;19.42;51.84
77702;BME280;66868;42.708;23.404;2023-09-30T08:23:30;95693.84;;;19.55;51.80
77702;BME280;66868;42.708;23.404;2023-09-30T08:25:58;95707.00;;;19.71;51.95
77702;BME280;66868;42.708;23.404;2023-09-30T08:28:24;95679.13;;;19.67;51.44
77702;BME280;66868;42.708;23.404;2023-09-30T08:30:49;95695.81;;;19.92;51.06
77702;BME280;66868;42.708;23.404;2023-09-30T08:33:18;95693.91;;;19.94;51.34
77702;BME280;66868;42.708;23.404;2023-09-30T08:35:43;95698.97;;;20.05;51.36
77702;BME280;66868;42.708;23.404;2023-09-30T08:38:08;95695.72;;;20.22;50.96
77702;BME280;66868;42.708;23.404;2023-09-30T08:40:34;95690.50;;;20.33;49.93
77702;BME280;66868;42.708;23.404;2023-09-30T08:42:59;95676.00;;;20.32;49.57
77702;BME280;66868;42.708;23.404;2023-09-30T08:45:28;95680.06;;;20.44;48.22
77702;BME280;66868;42.708;23.404;2023-09-30T08:47:54;95683.72;;;20.51;49.08
77702;BME280;66868;42.708;23.404;2023-09-30T08:50:20;95678.41;;;20.62;49.53
77702;BME280;66868;42.708;23.404;2023-09-30T08:52:47;95686.00;;;20.73;48.12
77702;BME280;66868;42.708;23.404;2023-09-30T08:55:13;95677.84;;;20.88;46.86
77702;BME280;66868;42.708;23.404;2023-09-30T08:57:42;95681.34;;;20.96;46.63
77702;BME280;66868;42.708;23.404;2023-09-30T09:00:10;95668.06;;;21.01;46.81
77702;BME280;66868;42.708;23.404;2023-09-30T09:02:39;95685.69;;;21.15;45.92
77702;BME280;66868;42.708;23.404;2023-09-30T09:05:05;95660.19;;;21.12;44.12
77702;BME280;66868;42.708;23.404;2023-09-30T09:07:31;95667.50;;;21.26;43.87
77702;BME280;66868;42.708;23.404;2023-09-30T09:10:11;95671.88;;;21.43;44.41
77702;BME280;66868;42.708;23.404;2023-09-30T09:12:41;95665.19;;;21.50;43.59
77702;BME280;66868;42.708;23.404;2023-09-30T09:15:20;95665.69;;;21.64;42.75
77702;BME280;66868;42.708;23.404;2023-09-30T09:17:46;95674.09;;;21.66;42.69
77702;BME280;66868;42.708;23.404;2023-09-30T09:20:17;95651.50;;;21.77;43.05
77702;BME280;66868;42.708;23.404;2023-09-30T09:22:48;95663.09;;;21.91;42.49
77702;BME280;66868;42.708;23.404;2023-09-30T09:25:13;95665.78;;;21.99;43.03
77702;BME280;66868;42.708;23.404;2023-09-30T09:27:39;95666.47;;;22.19;40.32
77702;BME280;66868;42.708;23.404;2023-09-30T09:30:34;95654.97;;;22.31;40.12
77702;BME280;66868;42.708;23.404;2023-09-30T09:33:04;95650.03;;;22.37;40.09
77702;BME280;66868;42.708;23.404;2023-09-30T09:35:31;95641.31;;;22.38;39.37
77702;BME280;66868;42.708;23.404;2023-09-30T09:38:03;95649.34;;;22.53;39.02
77702;BME280;66868;42.708;23.404;2023-09-30T09:40:36;95657.94;;;22.62;38.67
77702;BME280;66868;42.708;23.404;2023-09-30T09:43:03;95652.72;;;22.71;39.07
77702;BME280;66868;42.708;23.404;2023-09-30T09:45:33;95657.81;;;22.81;39.76
77702;BME280;66868;42.708;23.404;2023-09-30T09:47:59;95635.41;;;22.89;39.05
77702;BME280;66868;42.708;23.404;2023-09-30T09:50:24;95641.50;;;23.06;39.81
77702;BME280;66868;42.708;23.404;2023-09-30T09:52:51;95647.06;;;23.19;38.69
77702;BME280;66868;42.708;23.404;2023-09-30T09:55:18;95642.59;;;23.29;38.19
77702;BME280;66868;42.708;23.404;2023-09-30T09:57:45;95637.31;;;23.39;38.36
77702;BME280;66868;42.708;23.404;2023-09-30T10:00:31;95645.94;;;23.48;36.93
77702;BME280;66868;42.708;23.404;2023-09-30T10:02:59;95638.56;;;23.69;37.46
77702;BME280;66868;42.708;23.404;2023-09-30T10:05:24;95633.75;;;23.82;37.96
77702;BME280;66868;42.708;23.404;2023-09-30T10:07:54;95632.19;;;23.97;37.26
77702;BME280;66868;42.708;23.404;2023-09-30T10:10:22;95623.47;;;24.14;33.98
77702;BME280;66868;42.708;23.404;2023-09-30T10:12:48;95629.53;;;24.31;32.47
77702;BME280;66868;42.708;23.404;2023-09-30T10:20:38;95629.03;;;24.68;32.34
77702;BME280;66868;42.708;23.404;2023-09-30T10:23:26;95622.53;;;24.80;31.46
77702;BME280;66868;42.708;23.404;2023-09-30T10:28:44;95613.44;;;25.08;31.37
77702;BME280;66868;42.708;23.404;2023-09-30T10:31:19;95619.88;;;25.21;31.47
77702;BME280;66868;42.708;23.404;2023-09-30T10:36:28;95620.59;;;25.45;31.39
77702;BME280;66868;42.708;23.404;2023-09-30T10:38:54;95594.00;;;25.51;31.19
77702;BME280;66868;42.708;23.404;2023-09-30T10:41:49;95608.47;;;25.77;30.17
77702;BME280;66868;42.708;23.404;2023-09-30T10:49:46;95599.63;;;26.17;30.38
77702;BME280;66868;42.708;23.404;2023-09-30T10:52:21;95607.47;;;26.31;28.50
77702;BME280;66868;42.708;23.404;2023-09-30T10:54:49;95595.31;;;26.32;28.76
77702;BME280;66868;42.708;23.404;2023-09-30T10:57:29;95607.00;;;26.51;29.16
77702;BME280;66868;42.708;23.404;2023-09-30T11:00:07;95611.16;;;26.60;29.51
77702;BME280;66868;42.708;23.404;2023-09-30T11:02:33;95595.75;;;26.73;28.41
77702;BME280;66868;42.708;23.404;2023-09-30T11:05:09;95598.41;;;26.88;28.30
77702;BME280;66868;42.708;23.404;2023-09-30T11:07:35;95604.81;;;27.00;27.69
77702;BME280;66868;42.708;23.404;2023-09-30T11:10:02;95601.75;;;27.11;28.31
77702;BME280;66868;42.708;23.404;2023-09-30T11:12:28;95603.81;;;27.30;28.17
77702;BME280;66868;42.708;23.404;2023-09-30T11:15:01;95600.00;;;27.47;28.08
77702;BME280;66868;42.708;23.404;2023-09-30T11:17:27;95601.47;;;27.64;27.37
77702;BME280;66868;42.708;23.404;2023-09-30T11:19:54;95593.59;;;27.79;27.51
77702;BME280;66868;42.708;23.404;2023-09-30T11:22:20;95589.72;;;27.90;26.92
77702;BME280;66868;42.708;23.404;2023-09-30T11:24:46;95601.06;;;28.03;26.74
77702;BME280;66868;42.708;23.404;2023-09-30T11:27:12;95591.63;;;28.17;26.67
77702;BME280;66868;42.708;23.404;2023-09-30T11:29:48;95596.03;;;28.38;26.48
77702;BME280;66868;42.708;23.404;2023-09-30T11:32:26;95585.47;;;28.46;27.27
77702;BME280;66868;42.708;23.404;2023-09-30T11:34:55;95576.56;;;28.62;26.41
77702;BME280;66868;42.708;23.404;2023-09-30T11:37:21;95587.84;;;28.90;26.82
77702;BME280;66868;42.708;23.404;2023-09-30T11:39:47;95582.72;;;29.10;26.51
77702;BME280;66868;42.708;23.404;2023-09-30T11:42:16;95580.63;;;29.26;26.84
77702;BME280;66868;42.708;23.404;2023-09-30T11:44:46;95586.97;;;29.52;26.70
77702;BME280;66868;42.708;23.404;2023-09-30T11:47:13;95558.06;;;29.60;25.66
77702;BME280;66868;42.708;23.404;2023-09-30T11:49:41;95568.22;;;29.89;25.76
77702;BME280;66868;42.708;23.404;2023-09-30T11:52:11;95574.31;;;30.22;25.05
77702;BME280;66868;42.708;23.404;2023-09-30T11:54:38;95565.13;;;30.46;24.25
77702;BME280;66868;42.708;23.404;2023-09-30T11:57:07;95579.38;;;30.77;23.71
77702;BME280;66868;42.708;23.404;2023-09-30T11:59:36;95570.06;;;31.00;23.44
77702;BME280;66868;42.708;23.404;2023-09-30T12:02:03;95578.72;;;31.21;23.12
77702;BME280;66868;42.708;23.404;2023-09-30T12:04:29;95569.75;;;31.48;22.97
77702;BME280;66868;42.708;23.404;2023-09-30T12:06:54;95565.53;;;31.91;22.66
77702;BME280;66868;42.708;23.404;2023-09-30T12:09:20;95573.16;;;32.31;21.89
77702;BME280;66868;42.708;23.404;2023-09-30T12:11:54;95574.84;;;32.93;21.39
77702;BME280;66868;42.708;23.404;2023-09-30T12:14:21;95567.56;;;33.38;21.09
77702;BME280;66868;42.708;23.404;2023-09-30T12:16:47;95540.13;;;34.12;19.76
77702;BME280;66868;42.708;23.404;2023-09-30T12:19:17;95557.03;;;35.04;19.53
77702;BME280;66868;42.708;23.404;2023-09-30T12:21:44;95568.66;;;36.11;18.43
77702;BME280;66868;42.708;23.404;2023-09-30T12:24:12;95573.84;;;37.45;17.34
77702;BME280;66868;42.708;23.404;2023-09-30T12:26:44;95579.53;;;38.87;16.98
77702;BME280;66868;42.708;23.404;2023-09-30T12:29:23;95590.19;;;40.52;15.68
77702;BME280;66868;42.708;23.404;2023-09-30T12:31:50;95594.41;;;41.99;14.88
77702;BME280;66868;42.708;23.404;2023-09-30T12:34:16;95600.53;;;43.30;14.12
77702;BME280;66868;42.708;23.404;2023-09-30T12:36:42;95604.81;;;44.53;12.84
77702;BME280;66868;42.708;23.404;2023-09-30T12:39:09;95604.22;;;45.62;12.17
77702;BME280;66868;42.708;23.404;2023-09-30T12:41:38;95618.03;;;46.77;12.10
77702;BME280;66868;42.708;23.404;2023-09-30T12:44:04;95609.63;;;47.62;11.16
77702;BME280;66868;42.708;23.404;2023-09-30T12:46:30;95615.59;;;48.33;10.60
77702;BME280;66868;42.708;23.404;2023-09-30T12:48:56;95617.91;;;48.95;10.40
77702;BME280;66868;42.708;23.404;2023-09-30T12:51:22;95615.84;;;49.47;10.65
77702;BME280;66868;42.708;23.404;2023-09-30T12:53:48;95624.06;;;50.09;10.33
77702;BME280;66868;42.708;23.404;2023-09-30T12:56:13;95613.66;;;50.61;9.34
77702;BME280;66868;42.708;23.404;2023-09-30T12:58:39;95617.25;;;50.98;9.50
77702;BME280;66868;42.708;23.404;2023-09-30T13:01:04;95619.00;;;51.39;9.17
77702;BME280;66868;42.708;23.404;2023-09-30T13:03:31;95606.88;;;51.70;8.87
77702;BME280;66868;42.708;23.404;2023-09-30T13:05:57;95610.88;;;52.00;8.92